Time;durP1;ratioP1;P1;durP2;ratioP2;P2;SDS_P1;SDS_P2;PMS_P1;PMS_P2;Temp;Humidity;BMP_temperature;BMP_pressure;BME280_temperature;BME280_humidity;BME280_pressure;Samples;Min_cycle;Max_cycle;Signal;HPM_P1;HPM_P2
2021/10/15 00:01:00;;;;;;;4.00;1.98;;;;;;;;;;5011330;28;20025;-63
2021/10/15 00:03:26;;;;;;;6.50;1.88;;;;;;;;;;5026993;28;20094;-63
2021/10/15 00:06:12;;;;;;;4.55;2.55;;;;;;;;;;5028779;28;20098;-62
2021/10/15 00:08:38;;;;;;;13.90;2.08;;;;;;;;;;5025903;28;22021;-64
2021/10/15 00:11:05;;;;;;;3.45;1.90;;;;;;;;;;5029281;28;20025;-63
2021/10/15 00:13:30;;;;;;;6.03;1.75;;;;;;;;;;5023903;28;20145;-63
2021/10/15 00:16:00;;;;;;;3.55;1.90;;;;;;;;;;5012315;28;20078;-60
2021/10/15 00:18:25;;;;;;;4.32;2.22;;;;;;;;;;5029366;28;20105;-63
2021/10/15 00:20:51;;;;;;;10.90;2.72;;;;;;;;;;5010149;28;20036;-63
2021/10/15 00:23:19;;;;;;;7.78;2.10;;;;;;;;;;5020588;28;20047;-62
2021/10/15 00:25:44;;;;;;;6.75;2.20;;;;;;;;;;4995570;28;20040;-62
2021/10/15 00:28:10;;;;;;;3.40;1.58;;;;;;;;;;4990546;28;20037;-63
2021/10/15 00:30:38;;;;;;;8.43;2.60;;;;;;;;;;5016181;28;20048;-64
2021/10/15 00:33:04;;;;;;;5.20;2.00;;;;;;;;;;5025679;28;20041;-64
2021/10/15 00:35:29;;;;;;;9.40;2.17;;;;;;;;;;5007995;28;20037;-64
2021/10/15 00:37:54;;;;;;;8.75;2.45;;;;;;;;;;4998550;28;20037;-64
2021/10/15 00:40:20;;;;;;;8.90;2.42;;;;;;;;;;5024045;28;20468;-63
2021/10/15 00:42:47;;;;;;;12.65;2.58;;;;;;;;;;5025665;28;20040;-64
2021/10/15 00:45:12;;;;;;;8.57;2.75;;;;;;;;;;5025323;28;20086;-62
2021/10/15 00:47:38;;;;;;;6.65;2.63;;;;;;;;;;5025669;28;20033;-63
2021/10/15 00:50:04;;;;;;;7.38;2.42;;;;;;;;;;5000692;28;20031;-64
2021/10/15 00:52:32;;;;;;;9.52;2.35;;;;;;;;;;5014170;28;20049;-64
2021/10/15 00:55:00;;;;;;;9.43;2.63;;;;;;;;;;4987122;28;20043;-63
2021/10/15 00:57:26;;;;;;;3.75;2.08;;;;;;;;;;4998044;28;20028;-65
2021/10/15 00:59:51;;;;;;;8.07;2.63;;;;;;;;;;5005074;28;20629;-64
2021/10/15 01:02:20;;;;;;;6.82;2.20;;;;;;;;;;5028585;28;20110;-64
2021/10/15 01:04:48;;;;;;;10.38;2.17;;;;;;;;;;5028153;28;20031;-63
2021/10/15 01:07:15;;;;;;;6.72;2.20;;;;;;;;;;5019987;28;20396;-65
2021/10/15 01:09:59;;;;;;;6.15;2.35;;;;;;;;;;5009521;28;20033;-64
2021/10/15 01:12:25;;;;;;;9.77;3.08;;;;;;;;;;5032437;28;20028;-64
2021/10/15 01:14:50;;;;;;;11.27;2.95;;;;;;;;;;5027138;28;20024;-63
2021/10/15 01:17:18;;;;;;;9.88;2.60;;;;;;;;;;5028456;28;20108;-62
2021/10/15 01:19:44;;;;;;;12.77;3.10;;;;;;;;;;5027593;28;20035;-65
2021/10/15 01:25:45;;;;;;;11.68;2.50;;;;;;;;;;5026384;28;20067;-63
2021/10/15 01:28:11;;;;;;;5.60;2.95;;;;;;;;;;5025710;28;20952;-63
2021/10/15 01:30:36;;;;;;;7.00;2.90;;;;;;;;;;5009647;28;20039;-64
2021/10/15 01:33:02;;;;;;;9.85;3.38;;;;;;;;;;5024860;28;20036;-64
2021/10/15 01:35:28;;;;;;;7.30;3.00;;;;;;;;;;5005961;28;20059;-65
2021/10/15 01:37:53;;;;;;;11.63;2.58;;;;;;;;;;5028360;28;20036;-64
2021/10/15 01:40:19;;;;;;;9.35;2.85;;;;;;;;;;4992322;28;20116;-64
2021/10/15 01:42:58;;;;;;;6.82;3.40;;;;;;;;;;5027890;28;20033;-63
2021/10/15 01:45:25;;;;;;;9.77;3.20;;;;;;;;;;5012633;28;20044;-64
2021/10/15 01:47:54;;;;;;;11.10;2.92;;;;;;;;;;5046288;28;20120;-63
2021/10/15 01:50:23;;;;;;;7.45;2.75;;;;;;;;;;5025826;28;20025;-64
2021/10/15 01:52:51;;;;;;;11.43;3.20;;;;;;;;;;5004406;28;20041;-63
2021/10/15 01:55:17;;;;;;;10.18;3.17;;;;;;;;;;5029504;28;20033;-64
2021/10/15 01:57:42;;;;;;;11.55;3.17;;;;;;;;;;4999092;28;20637;-63
2021/10/15 02:00:13;;;;;;;5.70;2.95;;;;;;;;;;4999942;28;20032;-64
2021/10/15 02:02:39;;;;;;;8.77;2.95;;;;;;;;;;5015412;28;20037;-64
2021/10/15 02:05:05;;;;;;;8.82;3.45;;;;;;;;;;5010182;28;20082;-64
2021/10/15 02:07:31;;;;;;;12.70;3.03;;;;;;;;;;5011302;28;20029;-64
2021/10/15 02:09:56;;;;;;;8.13;2.80;;;;;;;;;;5007730;28;20072;-63
2021/10/15 02:12:23;;;;;;;6.32;2.95;;;;;;;;;;5026988;28;20072;-61
2021/10/15 02:14:48;;;;;;;16.77;3.38;;;;;;;;;;4995566;28;20040;-64
2021/10/15 02:17:14;;;;;;;7.85;2.70;;;;;;;;;;5031174;28;20579;-64
2021/10/15 02:19:42;;;;;;;10.43;3.80;;;;;;;;;;5014665;28;20036;-62
2021/10/15 02:22:07;;;;;;;7.90;2.60;;;;;;;;;;5003342;28;20035;-64
2021/10/15 02:24:33;;;;;;;14.07;3.15;;;;;;;;;;5032523;28;20121;-63
2021/10/15 02:26:59;;;;;;;19.25;4.10;;;;;;;;;;5016736;28;20119;-63
2021/10/15 02:29:24;;;;;;;8.73;3.10;;;;;;;;;;5005089;28;20056;-64
2021/10/15 02:31:50;;;;;;;12.23;4.30;;;;;;;;;;5035171;28;20056;-64
2021/10/15 02:37:57;;;;;;;12.05;3.80;;;;;;;;;;5032900;28;20043;-63
2021/10/15 02:40:22;;;;;;;6.20;3.10;;;;;;;;;;5013920;28;20025;-64
2021/10/15 02:42:52;;;;;;;14.35;4.28;;;;;;;;;;5018075;28;20707;-64
2021/10/15 05:05:30;;;;;;;10.57;1.15;;;;;;;;;;5012821;28;20087;-57
2021/10/15 06:17:06;;;;;;;25.67;2.05;;;;;;;;;;3363444;22;20053;-57
2021/10/15 06:19:41;;;;;;;11.40;1.13;;;;;;;;;;4980877;28;20056;-58
2021/10/15 06:22:10;;;;;;;18.02;1.10;;;;;;;;;;5020428;28;20037;-58
2021/10/15 06:24:40;;;;;;;10.43;0.93;;;;;;;;;;5006787;28;20025;-56
2021/10/15 06:27:08;;;;;;;12.13;1.65;;;;;;;;;;5004531;28;20087;-57
2021/10/15 06:29:36;;;;;;;4.30;1.00;;;;;;;;;;5007252;28;20037;-56
2021/10/15 06:32:04;;;;;;;10.90;1.13;;;;;;;;;;5023297;28;20775;-57
2021/10/15 06:34:30;;;;;;;8.73;0.82;;;;;;;;;;5000987;28;20025;-57
2021/10/15 06:37:08;;;;;;;8.90;1.23;;;;;;;;;;5020160;28;20037;-57
2021/10/15 06:39:33;;;;;;;7.93;0.77;;;;;;;;;;5022250;28;20050;-57
2021/10/15 06:41:59;;;;;;;14.00;1.40;;;;;;;;;;5001139;28;20028;-57
2021/10/15 06:44:25;;;;;;;7.32;1.05;;;;;;;;;;5003461;28;20562;-58
2021/10/15 06:46:52;;;;;;;8.68;0.95;;;;;;;;;;5020621;28;20569;-56
2021/10/15 06:49:22;;;;;;;8.88;1.30;;;;;;;;;;5024179;28;20037;-56
2021/10/15 06:51:50;;;;;;;6.40;0.60;;;;;;;;;;5023045;28;20114;-55
2021/10/15 06:54:16;;;;;;;3.85;0.60;;;;;;;;;;5022293;28;20190;-56
2021/10/15 06:56:42;;;;;;;4.50;0.50;;;;;;;;;;5002670;28;20041;-56
2021/10/15 06:59:09;;;;;;;4.93;0.60;;;;;;;;;;5003667;28;20048;-57
2021/10/15 07:01:37;;;;;;;6.25;0.98;;;;;;;;;;5004862;28;20110;-57
2021/10/15 07:04:03;;;;;;;10.43;1.17;;;;;;;;;;4998466;28;20043;-57
2021/10/15 07:06:31;;;;;;;3.97;0.80;;;;;;;;;;5012282;28;20036;-57
2021/10/15 07:08:57;;;;;;;10.98;1.20;;;;;;;;;;5018400;28;20041;-59
2021/10/15 07:11:23;;;;;;;5.50;0.70;;;;;;;;;;5004958;28;20029;-56
2021/10/15 07:13:48;;;;;;;13.52;0.80;;;;;;;;;;4999812;28;20029;-57
2021/10/15 07:16:13;;;;;;;5.85;1.05;;;;;;;;;;4973025;28;20041;-57
2021/10/15 07:18:39;;;;;;;7.15;1.10;;;;;;;;;;4986381;28;20037;-58
2021/10/15 07:21:09;;;;;;;8.70;1.63;;;;;;;;;;5007741;28;20025;-57
2021/10/15 07:23:34;;;;;;;10.10;0.82;;;;;;;;;;5020528;28;20045;-58
2021/10/15 07:26:03;;;;;;;5.75;0.82;;;;;;;;;;5025035;28;20036;-57
2021/10/15 07:28:31;;;;;;;9.30;0.90;;;;;;;;;;5022426;28;20052;-58
2021/10/15 07:30:59;;;;;;;4.40;0.60;;;;;;;;;;5021601;28;20505;-58
2021/10/15 07:33:30;;;;;;;5.47;0.73;;;;;;;;;;5007148;28;20037;-58
2021/10/15 07:35:56;;;;;;;4.07;0.60;;;;;;;;;;5006740;28;20171;-58
2021/10/15 07:38:26;;;;;;;9.40;1.08;;;;;;;;;;5002691;28;20776;-58
2021/10/15 07:40:54;;;;;;;14.60;1.75;;;;;;;;;;4992069;28;20047;-59
2021/10/15 07:43:21;;;;;;;7.45;1.17;;;;;;;;;;5010465;28;20086;-59
2021/10/15 07:45:51;;;;;;;9.38;1.08;;;;;;;;;;5023150;28;20029;-59
2021/10/15 07:48:19;;;;;;;10.52;0.80;;;;;;;;;;5021882;28;20622;-57
2021/10/15 07:50:47;;;;;;;10.65;0.80;;;;;;;;;;5024211;28;20487;-57
2021/10/15 07:53:15;;;;;;;6.13;0.85;;;;;;;;;;5022164;28;20033;-58
2021/10/15 07:55:40;;;;;;;6.45;0.95;;;;;;;;;;4987625;28;20036;-58
2021/10/15 07:58:08;;;;;;;11.23;1.13;;;;;;;;;;5003951;28;20028;-57
2021/10/15 08:00:35;;;;;;;7.80;1.23;;;;;;;;;;5008833;28;20099;-58
2021/10/15 08:03:01;;;;;;;8.98;1.20;;;;;;;;;;5017187;28;20188;-58
2021/10/15 08:05:29;;;;;;;13.77;1.58;;;;;;;;;;5022783;28;20025;-58
2021/10/15 08:07:55;;;;;;;10.82;1.38;;;;;;;;;;4995902;28;21209;-59
2021/10/15 08:10:25;;;;;;;5.80;0.80;;;;;;;;;;5004668;28;20044;-59
2021/10/15 08:12:51;;;;;;;14.73;1.35;;;;;;;;;;5003830;28;20037;-58
2021/10/15 08:15:20;;;;;;;11.23;2.22;;;;;;;;;;4986446;28;20040;-59
2021/10/15 08:17:48;;;;;;;7.25;1.20;;;;;;;;;;5003973;28;21115;-59
2021/10/15 08:20:14;;;;;;;9.80;1.13;;;;;;;;;;5019426;28;20033;-59
2021/10/15 08:22:40;;;;;;;10.18;1.40;;;;;;;;;;5005148;28;20915;-59
2021/10/15 08:25:06;;;;;;;16.70;1.27;;;;;;;;;;5022303;28;20939;-60
2021/10/15 08:27:32;;;;;;;12.82;1.27;;;;;;;;;;5023800;28;20728;-60
2021/10/15 08:30:03;;;;;;;3.78;0.95;;;;;;;;;;5022800;28;20032;-60
2021/10/15 08:32:30;;;;;;;14.05;1.60;;;;;;;;;;5022183;28;20033;-61
2021/10/15 08:34:56;;;;;;;9.82;1.40;;;;;;;;;;5024395;28;20044;-59
2021/10/15 08:37:24;;;;;;;10.32;1.33;;;;;;;;;;4970215;28;20056;-60
2021/10/15 08:39:52;;;;;;;14.00;1.30;;;;;;;;;;5006205;28;20031;-59
2021/10/15 08:42:19;;;;;;;12.40;1.23;;;;;;;;;;5023165;28;20037;-60
2021/10/15 08:44:46;;;;;;;14.30;1.55;;;;;;;;;;5004781;28;20790;-60
2021/10/15 08:47:13;;;;;;;10.48;1.65;;;;;;;;;;5006924;28;20045;-60
2021/10/15 08:49:41;;;;;;;14.00;1.73;;;;;;;;;;5006147;28;20033;-60
2021/10/15 08:52:10;;;;;;;6.00;1.60;;;;;;;;;;5021752;28;20057;-59
2021/10/15 08:54:38;;;;;;;13.02;1.73;;;;;;;;;;5022547;28;20037;-60
2021/10/15 08:57:07;;;;;;;12.38;1.90;;;;;;;;;;5002701;28;20464;-59
2021/10/15 08:59:42;;;;;;;16.27;2.58;;;;;;;;;;5022322;28;20541;-60
2021/10/15 09:02:12;;;;;;;19.23;2.55;;;;;;;;;;5023211;28;20127;-60
2021/10/15 09:04:54;;;;;;;17.30;2.15;;;;;;;;;;5021999;28;20100;-60
2021/10/15 09:07:20;;;;;;;23.08;2.95;;;;;;;;;;5008039;28;20839;-60
2021/10/15 09:09:46;;;;;;;15.43;2.15;;;;;;;;;;5020825;28;20020;-60
2021/10/15 09:12:18;;;;;;;10.05;1.70;;;;;;;;;;4989998;28;20036;-60
2021/10/15 09:14:46;;;;;;;14.88;2.95;;;;;;;;;;5021295;28;20040;-59
2021/10/15 09:17:20;;;;;;;7.47;1.10;;;;;;;;;;5019693;28;20038;-60
2021/10/15 09:19:50;;;;;;;11.38;2.03;;;;;;;;;;4987187;28;20079;-60
2021/10/15 09:22:22;;;;;;;15.10;2.10;;;;;;;;;;5004825;28;20020;-61
2021/10/15 09:24:48;;;;;;;11.65;1.25;;;;;;;;;;5001985;28;20996;-61
2021/10/15 09:27:22;;;;;;;15.75;2.08;;;;;;;;;;5021391;28;20020;-60
2021/10/15 09:29:49;;;;;;;20.02;2.25;;;;;;;;;;5022163;28;20037;-59
2021/10/15 09:32:15;;;;;;;22.00;2.70;;;;;;;;;;4989507;28;20125;-59
2021/10/15 09:34:41;;;;;;;23.60;2.35;;;;;;;;;;5018363;28;20032;-59
2021/10/15 09:37:12;;;;;;;8.75;1.73;;;;;;;;;;5001576;28;21672;-58
2021/10/15 09:39:37;;;;;;;21.90;2.28;;;;;;;;;;5021095;28;20087;-59
2021/10/15 09:42:15;;;;;;;15.23;2.35;;;;;;;;;;5008028;28;20132;-60
2021/10/15 09:44:40;;;;;;;11.80;1.85;;;;;;;;;;4987160;28;20041;-61
2021/10/15 09:47:21;;;;;;;21.02;2.03;;;;;;;;;;5003274;28;20044;-60
2021/10/15 09:49:57;;;;;;;21.35;2.78;;;;;;;;;;5020700;28;20029;-60
2021/10/15 09:52:32;;;;;;;17.95;2.05;;;;;;;;;;5018342;28;20581;-60
2021/10/15 09:54:59;;;;;;;7.18;1.80;;;;;;;;;;5020512;28;20045;-61
2021/10/15 09:57:29;;;;;;;14.95;1.73;;;;;;;;;;5000673;28;20029;-61
2021/10/15 09:59:55;;;;;;;13.88;2.20;;;;;;;;;;5022003;28;20029;-60
2021/10/15 10:02:26;;;;;;;9.50;1.80;;;;;;;;;;5020876;28;20053;-60
2021/10/15 10:04:55;;;;;;;16.48;1.90;;;;;;;;;;4989779;28;20033;-61
2021/10/15 10:07:24;;;;;;;14.93;2.33;;;;;;;;;;5022958;28;20079;-60
2021/10/15 10:09:52;;;;;;;11.35;1.88;;;;;;;;;;5002188;28;20128;-59
2021/10/15 10:12:19;;;;;;;14.00;2.13;;;;;;;;;;5020948;28;20109;-61
2021/10/15 10:14:45;;;;;;;11.23;1.67;;;;;;;;;;5021964;28;20112;-60
2021/10/15 10:17:12;;;;;;;9.30;1.77;;;;;;;;;;4998866;28;21045;-59
2021/10/15 10:19:38;;;;;;;10.65;2.10;;;;;;;;;;4998474;28;20033;-61
2021/10/15 10:22:04;;;;;;;11.45;1.60;;;;;;;;;;5022257;28;20040;-60
2021/10/15 10:24:31;;;;;;;16.52;1.73;;;;;;;;;;5021679;28;20037;-60
2021/10/15 10:27:02;;;;;;;13.40;2.15;;;;;;;;;;5000894;28;20064;-60
2021/10/15 10:29:42;;;;;;;10.85;1.48;;;;;;;;;;5001497;28;20120;-60
2021/10/15 10:32:17;;;;;;;11.55;2.05;;;;;;;;;;5004782;28;22000;-60
2021/10/15 10:34:42;;;;;;;13.18;2.13;;;;;;;;;;5006443;28;20060;-60
2021/10/15 10:37:10;;;;;;;10.07;2.00;;;;;;;;;;5004233;28;20116;-60
2021/10/15 10:39:39;;;;;;;13.45;1.95;;;;;;;;;;5024789;28;20036;-61
2021/10/15 10:42:10;;;;;;;5.53;1.73;;;;;;;;;;5025887;28;20017;-60
2021/10/15 10:45:01;;;;;;;7.70;1.77;;;;;;;;;;5009514;28;20025;-61
2021/10/15 10:47:29;;;;;;;8.73;1.83;;;;;;;;;;5022284;28;21969;-60
2021/10/15 10:50:06;;;;;;;8.30;1.70;;;;;;;;;;5015407;28;20044;-59
2021/10/15 10:52:58;;;;;;;8.10;1.67;;;;;;;;;;4991597;28;20040;-60
2021/10/15 10:55:35;;;;;;;7.65;1.40;;;;;;;;;;5003977;28;20065;-60
2021/10/15 10:58:00;;;;;;;9.70;1.75;;;;;;;;;;5023157;28;20024;-60
2021/10/15 11:00:33;;;;;;;7.65;1.40;;;;;;;;;;4993255;28;20733;-61
2021/10/15 11:03:01;;;;;;;6.25;1.83;;;;;;;;;;5008508;28;20043;-61
2021/10/15 11:05:35;;;;;;;10.50;1.48;;;;;;;;;;5006611;28;20033;-61
2021/10/15 11:08:21;;;;;;;5.82;1.33;;;;;;;;;;5006795;28;20071;-62
2021/10/15 11:10:50;;;;;;;6.10;1.10;;;;;;;;;;5008947;28;20033;-61
2021/10/15 11:13:37;;;;;;;5.93;1.35;;;;;;;;;;5007253;28;20471;-62
2021/10/15 11:16:17;;;;;;;11.77;1.75;;;;;;;;;;4991013;28;20033;-62
2021/10/15 11:18:45;;;;;;;9.32;2.00;;;;;;;;;;5020785;28;20511;-61
2021/10/15 11:21:14;;;;;;;10.23;1.73;;;;;;;;;;5024609;28;20599;-61
2021/10/15 11:23:41;;;;;;;10.43;1.90;;;;;;;;;;5024252;28;20044;-61
2021/10/15 11:26:09;;;;;;;11.45;1.80;;;;;;;;;;4991336;28;20029;-60
2021/10/15 11:28:35;;;;;;;15.30;1.80;;;;;;;;;;5023075;28;20029;-62
2021/10/15 11:31:00;;;;;;;11.68;1.85;;;;;;;;;;5024850;28;20880;-60
2021/10/15 11:33:28;;;;;;;10.07;1.88;;;;;;;;;;5001085;28;20515;-61
2021/10/15 11:35:55;;;;;;;13.00;1.90;;;;;;;;;;5025835;28;20120;-60
2021/10/15 11:38:27;;;;;;;7.80;1.48;;;;;;;;;;4988172;28;20127;-60
2021/10/15 11:41:03;;;;;;;18.80;2.30;;;;;;;;;;5009164;28;20029;-60
2021/10/15 11:43:38;;;;;;;8.82;1.60;;;;;;;;;;5023763;28;20033;-61
2021/10/15 11:46:04;;;;;;;7.82;1.33;;;;;;;;;;5000994;28;20025;-60
2021/10/15 11:48:36;;;;;;;16.20;1.27;;;;;;;;;;5001451;28;20017;-61
2021/10/15 11:51:03;;;;;;;9.32;1.65;;;;;;;;;;5024445;28;20052;-60
2021/10/15 11:53:31;;;;;;;4.38;1.38;;;;;;;;;;4994813;28;20040;-60
2021/10/15 11:56:03;;;;;;;8.60;1.25;;;;;;;;;;5004176;28;20031;-60
2021/10/15 11:58:31;;;;;;;8.98;1.98;;;;;;;;;;5006099;28;20113;-60
2021/10/15 12:01:04;;;;;;;6.47;1.15;;;;;;;;;;5013296;28;20029;-61
2021/10/15 12:03:35;;;;;;;7.57;1.40;;;;;;;;;;4993873;28;20037;-60
2021/10/15 12:06:18;;;;;;;8.68;1.48;;;;;;;;;;5010344;28;20674;-59
2021/10/15 12:08:45;;;;;;;11.25;1.92;;;;;;;;;;5024145;28;20571;-60
2021/10/15 12:11:14;;;;;;;5.97;1.25;;;;;;;;;;5003739;28;20021;-60
2021/10/15 12:13:39;;;;;;;6.82;1.20;;;;;;;;;;5021092;28;20033;-61
2021/10/15 12:16:20;;;;;;;7.32;1.20;;;;;;;;;;5024948;28;20153;-60
2021/10/15 12:18:54;;;;;;;4.53;1.10;;;;;;;;;;4992832;28;20045;-60
2021/10/15 12:21:28;;;;;;;5.15;0.80;;;;;;;;;;5024176;28;20029;-61
2021/10/15 12:23:53;;;;;;;5.80;1.50;;;;;;;;;;5007893;28;20041;-60
2021/10/15 12:26:22;;;;;;;3.40;0.95;;;;;;;;;;5004463;28;20325;-60
2021/10/15 12:28:48;;;;;;;7.22;1.25;;;;;;;;;;5022202;28;20033;-60
2021/10/15 12:31:24;;;;;;;6.07;1.00;;;;;;;;;;5023061;28;20028;-62
2021/10/15 12:34:01;;;;;;;5.97;1.40;;;;;;;;;;5001797;28;20041;-61
2021/10/15 12:36:27;;;;;;;5.10;1.08;;;;;;;;;;5005502;28;20025;-60
2021/10/15 12:38:52;;;;;;;6.20;0.95;;;;;;;;;;4989618;28;20555;-61
2021/10/15 12:41:31;;;;;;;6.32;1.13;;;;;;;;;;4991344;28;20029;-59
2021/10/15 12:43:56;;;;;;;4.00;1.33;;;;;;;;;;4988310;28;20144;-61
2021/10/15 12:46:22;;;;;;;11.18;1.30;;;;;;;;;;5012637;28;20039;-62
2021/10/15 12:49:00;;;;;;;4.80;1.13;;;;;;;;;;5005578;28;20048;-62
2021/10/15 12:51:35;;;;;;;8.38;0.98;;;;;;;;;;5023630;28;20033;-62
2021/10/15 12:54:03;;;;;;;5.75;0.88;;;;;;;;;;5023642;28;20151;-62
2021/10/15 12:56:31;;;;;;;11.80;1.35;;;;;;;;;;4991777;28;20690;-60
2021/10/15 12:58:57;;;;;;;10.73;1.10;;;;;;;;;;5022467;28;21306;-60
2021/10/15 13:01:25;;;;;;;6.45;0.80;;;;;;;;;;5005848;28;20144;-60
2021/10/15 13:03:51;;;;;;;4.88;1.20;;;;;;;;;;5022768;28;20035;-61
2021/10/15 13:06:16;;;;;;;8.65;0.65;;;;;;;;;;4990250;28;20025;-61
2021/10/15 13:08:49;;;;;;;6.53;0.95;;;;;;;;;;4975393;28;20039;-61
2021/10/15 13:11:25;;;;;;;1.67;0.50;;;;;;;;;;5022657;28;20028;-60
2021/10/15 13:13:54;;;;;;;6.20;1.10;;;;;;;;;;5002970;28;20097;-60
2021/10/15 13:16:22;;;;;;;3.13;0.90;;;;;;;;;;5022551;28;21005;-61
2021/10/15 13:18:51;;;;;;;6.97;1.33;;;;;;;;;;5002069;28;20036;-60
2021/10/15 13:21:19;;;;;;;3.95;0.70;;;;;;;;;;5022320;28;21417;-61
2021/10/15 13:23:49;;;;;;;8.20;1.13;;;;;;;;;;5001921;28;20037;-61
2021/10/15 13:26:17;;;;;;;6.07;1.23;;;;;;;;;;5005461;28;20028;-61
2021/10/15 13:28:43;;;;;;;8.00;1.42;;;;;;;;;;5001586;28;20021;-61
2021/10/15 13:31:11;;;;;;;8.10;1.08;;;;;;;;;;5008156;28;20037;-60
2021/10/15 13:33:37;;;;;;;7.22;1.20;;;;;;;;;;5020976;28;20032;-61
2021/10/15 13:36:02;;;;;;;5.63;1.08;;;;;;;;;;5008682;28;20423;-61
2021/10/15 13:38:31;;;;;;;6.15;1.05;;;;;;;;;;4992388;28;20384;-61
2021/10/15 13:41:11;;;;;;;11.40;1.42;;;;;;;;;;5006247;28;20037;-61
2021/10/15 13:44:04;;;;;;;6.40;1.00;;;;;;;;;;5006921;28;20025;-60
2021/10/15 13:46:38;;;;;;;9.18;1.33;;;;;;;;;;5007334;28;20045;-61
2021/10/15 13:51:52;;;;;;;10.63;1.38;;;;;;;;;;5009454;28;20148;-61
2021/10/15 13:54:18;;;;;;;12.48;1.75;;;;;;;;;;5022843;28;20495;-61
2021/10/15 13:56:43;;;;;;;9.48;1.38;;;;;;;;;;5021239;28;20842;-63
2021/10/15 13:59:17;;;;;;;5.50;1.00;;;;;;;;;;4987924;28;20033;-61
2021/10/15 14:01:53;;;;;;;9.40;1.38;;;;;;;;;;4999280;28;20039;-62
2021/10/15 14:04:31;;;;;;;10.02;1.13;;;;;;;;;;5000612;28;20529;-62
2021/10/15 14:06:57;;;;;;;12.50;1.63;;;;;;;;;;5006945;28;20120;-63
2021/10/15 14:09:22;;;;;;;11.73;1.63;;;;;;;;;;5018231;28;20035;-63
2021/10/15 14:11:48;;;;;;;6.57;0.85;;;;;;;;;;5007304;28;20509;-63
2021/10/15 14:14:15;;;;;;;9.10;1.02;;;;;;;;;;5001363;28;20047;-63
2021/10/15 14:16:40;;;;;;;12.80;1.45;;;;;;;;;;5006178;28;20114;-64
2021/10/15 14:19:08;;;;;;;9.88;1.13;;;;;;;;;;5019466;28;20048;-63
2021/10/15 14:21:38;;;;;;;15.93;1.30;;;;;;;;;;5019046;28;20030;-62
2021/10/15 14:24:04;;;;;;;8.02;1.17;;;;;;;;;;5000137;28;20152;-63
2021/10/15 14:26:29;;;;;;;8.75;1.25;;;;;;;;;;5003013;28;20033;-63
2021/10/15 14:29:02;;;;;;;5.72;1.27;;;;;;;;;;4984467;28;20423;-61
2021/10/15 14:31:31;;;;;;;13.77;1.08;;;;;;;;;;5018089;28;20040;-63
2021/10/15 14:33:58;;;;;;;6.45;1.38;;;;;;;;;;5005149;28;21039;-61
2021/10/15 14:36:28;;;;;;;4.07;0.73;;;;;;;;;;4993527;28;20122;-61
2021/10/15 14:38:57;;;;;;;16.08;1.45;;;;;;;;;;5001721;28;20033;-62
2021/10/15 14:41:28;;;;;;;7.72;1.27;;;;;;;;;;5007767;28;20031;-62
2021/10/15 14:43:54;;;;;;;7.63;0.80;;;;;;;;;;5025270;28;20119;-62
2021/10/15 14:46:23;;;;;;;9.57;1.38;;;;;;;;;;4975732;28;20037;-62
2021/10/15 14:48:48;;;;;;;11.57;1.50;;;;;;;;;;5006090;28;20040;-62
2021/10/15 14:51:17;;;;;;;8.60;0.85;;;;;;;;;;5004096;28;20116;-62
2021/10/15 14:53:43;;;;;;;6.72;1.20;;;;;;;;;;5006226;28;20025;-62
2021/10/15 14:56:13;;;;;;;5.13;1.20;;;;;;;;;;4988798;28;20072;-62
2021/10/15 14:58:43;;;;;;;11.63;1.40;;;;;;;;;;5022043;28;20492;-61
2021/10/15 15:01:14;;;;;;;7.03;1.00;;;;;;;;;;5023162;28;20768;-62
2021/10/15 15:03:43;;;;;;;9.05;0.98;;;;;;;;;;5021457;28;20954;-61
2021/10/15 15:06:11;;;;;;;8.07;0.95;;;;;;;;;;5004054;28;20059;-61
2021/10/15 15:08:39;;;;;;;5.20;1.10;;;;;;;;;;5005432;28;20037;-63
2021/10/15 15:11:07;;;;;;;13.73;1.33;;;;;;;;;;5022359;28;20036;-63
2021/10/15 15:13:35;;;;;;;10.25;1.55;;;;;;;;;;5004604;28;20037;-62
2021/10/15 15:16:02;;;;;;;12.60;1.45;;;;;;;;;;5017666;28;20021;-63
2021/10/15 15:18:30;;;;;;;6.13;1.38;;;;;;;;;;4992561;28;20165;-63
2021/10/15 15:21:02;;;;;;;6.85;1.08;;;;;;;;;;4988364;28;21031;-61
2021/10/15 15:23:28;;;;;;;6.10;0.85;;;;;;;;;;4988957;28;20186;-62
2021/10/15 15:25:57;;;;;;;10.90;1.30;;;;;;;;;;5006562;28;20633;-61
2021/10/15 15:28:28;;;;;;;10.77;1.77;;;;;;;;;;5001474;28;20040;-61
2021/10/15 15:31:05;;;;;;;6.63;1.20;;;;;;;;;;4991923;28;20037;-63
2021/10/15 15:33:35;;;;;;;8.10;1.30;;;;;;;;;;5001048;28;20038;-62
2021/10/15 15:36:04;;;;;;;9.55;1.50;;;;;;;;;;5002504;28;20123;-62
2021/10/15 15:38:34;;;;;;;7.65;0.82;;;;;;;;;;4972348;28;20582;-62
2021/10/15 15:41:00;;;;;;;10.20;1.27;;;;;;;;;;5003625;28;20039;-62
2021/10/15 15:43:29;;;;;;;6.07;1.30;;;;;;;;;;5020352;28;20025;-63
2021/10/15 15:45:57;;;;;;;14.90;1.70;;;;;;;;;;5023200;28;20036;-63
2021/10/15 15:48:24;;;;;;;17.52;2.17;;;;;;;;;;5021714;28;20068;-62
2021/10/15 15:50:53;;;;;;;10.00;1.23;;;;;;;;;;5022118;28;20045;-61
2021/10/15 15:53:21;;;;;;;9.32;1.30;;;;;;;;;;5022040;28;20047;-63
2021/10/15 15:55:52;;;;;;;8.75;1.45;;;;;;;;;;5020300;28;20164;-63
2021/10/15 15:58:24;;;;;;;11.20;0.93;;;;;;;;;;4996775;28;20025;-61
2021/10/15 16:00:54;;;;;;;9.02;1.50;;;;;;;;;;5021346;28;20029;-63
2021/10/15 16:03:25;;;;;;;6.13;1.00;;;;;;;;;;5002995;28;21050;-63
2021/10/15 16:05:52;;;;;;;5.63;1.00;;;;;;;;;;5019753;28;20037;-64
2021/10/15 16:08:17;;;;;;;7.68;1.08;;;;;;;;;;5002224;28;20041;-61
2021/10/15 16:10:46;;;;;;;6.78;1.00;;;;;;;;;;5000224;28;20170;-63
2021/10/15 16:13:13;;;;;;;4.60;0.60;;;;;;;;;;4999543;28;20992;-62
2021/10/15 16:15:40;;;;;;;9.77;0.82;;;;;;;;;;5021358;28;20036;-62
2021/10/15 16:18:10;;;;;;;8.07;1.20;;;;;;;;;;5020889;28;20033;-62
2021/10/15 16:20:41;;;;;;;10.90;1.00;;;;;;;;;;4989924;28;20377;-63
2021/10/15 16:23:09;;;;;;;12.20;1.00;;;;;;;;;;5014857;28;20490;-62
2021/10/15 16:25:39;;;;;;;12.57;0.88;;;;;;;;;;5003783;28;20033;-62
2021/10/15 16:28:04;;;;;;;7.32;1.27;;;;;;;;;;5016881;28;20598;-61
2021/10/15 16:30:32;;;;;;;9.55;1.17;;;;;;;;;;4987839;28;20123;-61
2021/10/15 16:32:58;;;;;;;5.70;1.10;;;;;;;;;;5002863;28;20366;-63
2021/10/15 16:35:24;;;;;;;5.70;1.38;;;;;;;;;;5000638;28;20025;-61
2021/10/15 16:37:49;;;;;;;13.63;1.75;;;;;;;;;;4989832;28;20349;-61
2021/10/15 16:40:19;;;;;;;6.43;1.15;;;;;;;;;;5003895;28;20111;-61
2021/10/15 16:42:47;;;;;;;15.70;2.10;;;;;;;;;;5004446;28;20030;-61
2021/10/15 16:45:15;;;;;;;7.60;1.30;;;;;;;;;;5018614;28;20021;-61
2021/10/15 16:47:41;;;;;;;3.75;0.85;;;;;;;;;;5000512;28;20076;-62
2021/10/15 16:50:07;;;;;;;14.32;1.58;;;;;;;;;;5021352;28;20154;-62
2021/10/15 16:52:32;;;;;;;8.50;1.17;;;;;;;;;;5003428;28;20032;-62
2021/10/15 16:54:58;;;;;;;8.57;1.40;;;;;;;;;;5020710;28;20107;-63
2021/10/15 16:57:24;;;;;;;10.95;1.08;;;;;;;;;;5020128;28;20021;-62
2021/10/15 16:59:50;;;;;;;12.68;1.63;;;;;;;;;;5006556;28;20032;-62
2021/10/15 17:02:18;;;;;;;21.27;1.63;;;;;;;;;;5004864;28;20657;-62
2021/10/15 17:04:45;;;;;;;10.68;1.60;;;;;;;;;;5020140;28;20033;-62
2021/10/15 17:07:14;;;;;;;9.27;1.70;;;;;;;;;;4990761;28;20032;-63
2021/10/15 17:09:42;;;;;;;10.18;1.73;;;;;;;;;;5020482;28;21969;-63
2021/10/15 17:12:08;;;;;;;13.32;1.63;;;;;;;;;;4991014;28;20903;-62
2021/10/15 17:14:36;;;;;;;2.80;1.05;;;;;;;;;;5020026;28;20048;-61
2021/10/15 17:17:04;;;;;;;8.57;1.27;;;;;;;;;;5002744;28;20029;-63
2021/10/15 17:19:35;;;;;;;14.07;1.02;;;;;;;;;;4999465;28;20254;-63
2021/10/15 17:22:00;;;;;;;11.75;1.42;;;;;;;;;;5021646;28;20025;-62
2021/10/15 17:24:26;;;;;;;8.45;2.05;;;;;;;;;;5000561;28;20790;-63
2021/10/15 17:26:54;;;;;;;12.95;2.30;;;;;;;;;;5019247;28;20048;-62
2021/10/15 17:29:24;;;;;;;18.65;1.92;;;;;;;;;;5001613;28;20032;-64
2021/10/15 17:32:00;;;;;;;22.45;1.88;;;;;;;;;;4989854;28;20025;-63
2021/10/15 17:34:27;;;;;;;13.20;1.38;;;;;;;;;;5002435;28;20033;-63
2021/10/15 17:36:55;;;;;;;11.02;1.67;;;;;;;;;;4989493;28;20017;-63
2021/10/15 17:39:22;;;;;;;12.43;1.52;;;;;;;;;;5004029;28;20044;-63
2021/10/15 17:41:48;;;;;;;8.85;1.65;;;;;;;;;;4990460;28;20021;-64
2021/10/15 17:44:16;;;;;;;10.60;2.22;;;;;;;;;;4984380;28;20120;-63
2021/10/15 17:46:42;;;;;;;7.57;1.77;;;;;;;;;;4995743;28;20099;-63
2021/10/15 17:49:09;;;;;;;10.50;1.40;;;;;;;;;;5026332;28;20046;-62
2021/10/15 17:51:37;;;;;;;17.33;1.85;;;;;;;;;;5006144;28;20037;-63
2021/10/15 17:54:06;;;;;;;4.78;1.20;;;;;;;;;;4992793;28;20041;-63
2021/10/15 17:56:31;;;;;;;5.18;1.20;;;;;;;;;;5011109;28;20446;-63
2021/10/15 17:58:57;;;;;;;16.08;1.77;;;;;;;;;;5021829;28;20110;-63
2021/10/15 18:01:24;;;;;;;10.80;1.83;;;;;;;;;;5012216;28;20024;-63
2021/10/15 18:03:49;;;;;;;10.80;1.70;;;;;;;;;;5023180;28;20039;-64
2021/10/15 18:06:18;;;;;;;16.52;2.45;;;;;;;;;;5026134;28;20959;-64
2021/10/15 18:08:43;;;;;;;10.45;1.98;;;;;;;;;;4992091;28;20115;-63
2021/10/15 18:11:09;;;;;;;15.90;1.85;;;;;;;;;;5009492;28;20185;-62
2021/10/15 18:13:39;;;;;;;15.93;3.50;;;;;;;;;;5007037;28;20127;-63
2021/10/15 18:16:08;;;;;;;10.27;1.50;;;;;;;;;;5008911;28;20029;-63
2021/10/15 18:18:34;;;;;;;14.43;1.25;;;;;;;;;;5009165;28;20658;-63
2021/10/15 18:21:02;;;;;;;5.40;1.23;;;;;;;;;;5026925;28;20037;-63
2021/10/15 18:23:29;;;;;;;13.50;1.55;;;;;;;;;;4989338;28;20225;-63
2021/10/15 18:25:55;;;;;;;11.82;1.55;;;;;;;;;;5006524;28;20060;-64